Time;durP1;ratioP1;P1;durP2;ratioP2;P2;SDS_P1;SDS_P2;PMS_P1;PMS_P2;Temp;Humidity;BMP_temperature;BMP_pressure;BME280_temperature;BME280_humidity;BME280_pressure;Samples;Min_cycle;Max_cycle;Signal;HPM_P1;HPM_P2
2023/06/03 00:00:21;;;;;;;8.68;2.90;;;;;;;-143.48;77.59;118439.88;5036331;28;20046;-75
2023/06/03 00:02:49;;;;;;;16.75;2.90;;;;;;;-143.48;78.35;118439.88;5018861;28;20025;-75
2023/06/03 00:05:17;;;;;;;8.90;3.00;;;;;;;-143.48;77.59;118439.88;5019220;28;20049;-75
2023/06/03 00:07:43;;;;;;;6.72;2.50;;;;;;;-143.48;77.65;118439.88;5036307;28;20025;-75
2023/06/03 00:10:09;;;;;;;6.28;2.60;;;;;;;-143.48;77.01;118439.88;5036469;28;20457;-75
2023/06/03 00:12:34;;;;;;;6.50;2.92;;;;;;;-143.48;77.06;118439.88;5036477;28;20029;-75
2023/06/03 00:15:00;;;;;;;7.40;2.67;;;;;;;-143.48;76.93;118439.88;5018975;28;20025;-75
2023/06/03 00:17:27;;;;;;;9.40;2.90;;;;;;;-143.48;76.49;118439.88;5036677;28;20025;-75
2023/06/03 00:19:53;;;;;;;5.05;2.58;;;;;;;-143.48;75.97;118439.88;5018847;28;20461;-75
2023/06/03 00:22:18;;;;;;;5.35;2.83;;;;;;;-143.48;76.09;118439.88;5036701;28;20040;-74
2023/06/03 00:24:44;;;;;;;8.15;2.70;;;;;;;-143.48;75.80;118439.88;5018455;28;20389;-75
2023/06/03 00:27:09;;;;;;;6.35;2.80;;;;;;;-143.48;76.10;118439.88;5035986;28;20096;-75
2023/06/03 00:29:34;;;;;;;5.03;2.65;;;;;;;-143.48;75.92;118439.88;5018466;28;20441;-75
2023/06/03 00:32:00;;;;;;;9.52;3.00;;;;;;;-143.48;75.99;118439.88;5018526;28;20025;-75
2023/06/03 00:34:25;;;;;;;8.23;3.03;;;;;;;-143.48;76.19;118439.88;5035868;28;20064;-75
2023/06/03 00:36:51;;;;;;;9.65;2.92;;;;;;;-143.48;75.14;118439.88;5018326;28;20100;-75
2023/06/03 00:39:16;;;;;;;5.78;2.80;;;;;;;-143.48;76.56;118439.88;5036015;28;20503;-75
2023/06/03 00:41:41;;;;;;;5.97;2.75;;;;;;;-143.48;77.04;118439.88;5036284;28;20036;-75
2023/06/03 00:44:07;;;;;;;9.43;2.92;;;;;;;-143.48;77.56;118439.88;5036127;28;20052;-75
2023/06/03 00:46:34;;;;;;;8.73;2.83;;;;;;;-143.48;77.20;118439.88;5036166;28;20057;-75
2023/06/03 00:49:00;;;;;;;6.32;2.90;;;;;;;-143.48;77.66;118439.88;5018472;28;20033;-75
2023/06/03 00:51:26;;;;;;;7.35;3.03;;;;;;;-143.48;77.56;118439.88;5036174;28;20108;-75
2023/06/03 00:53:51;;;;;;;7.72;3.25;;;;;;;-143.48;77.46;118439.88;5018112;28;20132;-75
2023/06/03 00:56:18;;;;;;;8.45;2.95;;;;;;;-143.48;78.21;118439.88;5017889;28;20445;-74
2023/06/03 00:58:43;;;;;;;11.55;3.00;;;;;;;-143.48;78.11;118439.88;5017989;28;20032;-75
2023/06/03 01:01:09;;;;;;;6.30;3.00;;;;;;;-143.48;77.38;118439.88;5035355;28;20053;-75
2023/06/03 01:03:36;;;;;;;11.05;3.70;;;;;;;-143.48;76.85;118439.88;5017973;28;20036;-75
2023/06/03 01:06:18;;;;;;;17.67;3.67;;;;;;;-143.48;76.93;118439.88;5035805;28;20481;-74
2023/06/03 01:09:06;;;;;;;9.07;3.20;;;;;;;-143.48;77.47;118439.88;5018028;28;20029;-75
2023/06/03 01:11:51;;;;;;;8.18;3.33;;;;;;;-143.48;77.57;118439.88;5034790;28;20287;-75
2023/06/03 01:14:39;;;;;;;6.32;3.08;;;;;;;-143.48;77.96;118439.88;5035448;28;20033;-75
2023/06/03 01:17:09;;;;;;;6.03;3.00;;;;;;;-143.48;77.20;118439.88;5017517;28;20369;-75
2023/06/03 01:19:52;;;;;;;4.95;2.92;;;;;;;-143.48;78.04;118439.88;5033965;28;20029;-75
2023/06/03 01:22:20;;;;;;;7.88;3.08;;;;;;;-143.48;77.39;118439.88;5035792;28;20035;-75
2023/06/03 01:24:51;;;;;;;6.00;3.10;;;;;;;-143.48;76.69;118439.88;5017436;28;20057;-74
2023/06/03 01:27:18;;;;;;;5.93;3.10;;;;;;;-143.48;76.65;118439.88;5017151;28;20080;-75
2023/06/03 01:29:44;;;;;;;8.15;3.50;;;;;;;-143.48;75.86;118439.88;5035448;28;20025;-74
2023/06/03 01:32:13;;;;;;;5.97;3.28;;;;;;;-143.48;75.49;118439.88;5017812;28;20065;-75
2023/06/03 01:34:41;;;;;;;7.60;3.58;;;;;;;-143.48;74.77;118439.88;5017863;28;20436;-74
2023/06/03 01:37:07;;;;;;;5.38;2.95;;;;;;;-143.48;75.01;118439.88;5018025;28;20029;-75
2023/06/03 01:39:33;;;;;;;6.30;3.03;;;;;;;-143.48;73.94;118439.88;5001164;28;20116;-74
2023/06/03 01:41:59;;;;;;;5.47;3.00;;;;;;;-143.48;73.67;118439.88;5017502;28;20049;-75
2023/06/03 01:44:24;;;;;;;8.52;3.10;;;;;;;-143.48;73.80;118439.88;5035265;28;20025;-75
2023/06/03 01:46:50;;;;;;;4.95;3.10;;;;;;;-143.48;73.44;118439.88;5034844;28;20029;-74
2023/06/03 01:49:17;;;;;;;6.88;3.22;;;;;;;-143.48;73.08;118439.88;5017450;28;20052;-75
2023/06/03 01:51:43;;;;;;;7.40;2.67;;;;;;;-143.48;73.44;118439.88;5000949;28;20053;-74
2023/06/03 01:54:08;;;;;;;9.90;3.15;;;;;;;-143.48;74.24;118439.88;5016811;28;20485;-74
2023/06/03 01:56:34;;;;;;;8.05;3.33;;;;;;;-143.48;72.72;118439.88;5016651;28;20021;-74
2023/06/03 01:58:59;;;;;;;5.85;2.80;;;;;;;-143.48;73.63;118439.88;5017432;28;20064;-75
2023/06/03 02:01:24;;;;;;;9.45;3.20;;;;;;;-143.48;73.50;118439.88;5016689;28;20049;-75
2023/06/03 02:03:50;;;;;;;7.20;3.38;;;;;;;-143.48;72.37;118439.88;5017383;28;20366;-74
2023/06/03 02:06:15;;;;;;;6.68;2.60;;;;;;;-143.48;71.82;118439.88;5035119;28;20147;-74
2023/06/03 02:08:41;;;;;;;8.65;3.05;;;;;;;-143.48;72.03;118439.88;5034269;28;20025;-75
2023/06/03 02:11:06;;;;;;;12.80;2.83;;;;;;;-143.48;72.04;118439.88;5016772;28;20120;-75
2023/06/03 02:13:31;;;;;;;5.25;2.80;;;;;;;-143.48;71.55;118439.88;5016485;28;20025;-74
2023/06/03 02:15:56;;;;;;;6.75;3.35;;;;;;;-143.48;71.76;118439.88;5016999;28;20435;-74
2023/06/03 02:18:23;;;;;;;6.20;3.00;;;;;;;-143.48;71.39;118439.88;5016864;28;20509;-75
2023/06/03 02:20:48;;;;;;;5.03;2.80;;;;;;;-143.48;70.93;118439.88;5034091;28;20064;-74
2023/06/03 02:23:13;;;;;;;9.00;3.10;;;;;;;-143.48;71.12;118439.88;5015423;28;20049;-74
2023/06/03 02:25:40;;;;;;;7.75;2.80;;;;;;;-143.48;70.54;118439.88;5016376;28;20079;-74
2023/06/03 02:28:07;;;;;;;11.10;2.97;;;;;;;-143.48;70.94;118439.88;5016798;28;20033;-74
2023/06/03 02:30:33;;;;;;;5.40;3.03;;;;;;;-143.48;70.43;118439.88;5034414;28;20013;-75
2023/06/03 02:32:59;;;;;;;11.60;3.17;;;;;;;-143.48;70.16;118439.88;5034362;28;20522;-74
2023/06/03 02:35:24;;;;;;;6.13;2.70;;;;;;;-143.48;69.86;118439.88;5016256;28;20461;-75
2023/06/03 02:37:50;;;;;;;6.75;2.90;;;;;;;-143.48;69.39;118439.88;5034419;28;20465;-75
2023/06/03 02:40:16;;;;;;;8.05;3.05;;;;;;;-143.48;69.51;118439.88;5033712;28;20026;-75
2023/06/03 02:42:41;;;;;;;6.18;3.08;;;;;;;-143.48;70.06;118439.88;5016007;28;20032;-75
2023/06/03 02:45:07;;;;;;;4.65;2.80;;;;;;;-143.48;69.66;118439.88;5016051;28;20108;-75
2023/06/03 02:47:34;;;;;;;7.28;2.88;;;;;;;-143.48;69.57;118439.88;5016041;28;20129;-75
2023/06/03 02:49:59;;;;;;;8.90;3.03;;;;;;;-143.48;70.01;118439.88;5033906;28;20505;-75
2023/06/03 02:52:25;;;;;;;5.68;2.90;;;;;;;-143.48;69.57;118439.88;5016308;28;20021;-75
2023/06/03 02:54:50;;;;;;;8.25;2.70;;;;;;;-143.48;70.50;118439.88;5033776;28;20040;-75
2023/06/03 02:57:16;;;;;;;6.57;2.55;;;;;;;-143.48;70.25;118439.88;5015642;28;20045;-75
2023/06/03 02:59:42;;;;;;;11.77;2.88;;;;;;;-143.48;70.62;118439.88;5015832;28;20108;-75
2023/06/03 03:02:07;;;;;;;4.13;2.40;;;;;;;-143.48;71.16;118439.88;5033444;28;20561;-75
2023/06/03 03:04:36;;;;;;;12.40;2.80;;;;;;;-143.48;70.98;118439.88;5034087;28;20104;-75
2023/06/03 03:07:07;;;;;;;7.60;3.05;;;;;;;-143.48;71.95;118439.88;5015703;28;20018;-75
2023/06/03 03:09:32;;;;;;;5.93;2.63;;;;;;;-143.48;72.40;118439.88;5016192;28;20108;-75
2023/06/03 03:11:58;;;;;;;5.65;2.67;;;;;;;-143.48;72.64;118439.88;5033650;28;20053;-75
2023/06/03 03:14:23;;;;;;;5.75;2.78;;;;;;;-143.48;72.28;118439.88;5033749;28;20033;-75
2023/06/03 03:16:48;;;;;;;9.13;2.80;;;;;;;-143.48;72.45;118439.88;5015414;28;20424;-75
2023/06/03 03:19:14;;;;;;;7.15;2.80;;;;;;;-143.48;72.56;118439.88;5015616;28;20021;-75
2023/06/03 03:21:39;;;;;;;10.82;2.90;;;;;;;-143.48;71.94;118439.88;5015483;28;20032;-75
2023/06/03 03:24:05;;;;;;;7.05;2.72;;;;;;;-143.48;72.28;118439.88;5033151;28;20025;-75
2023/06/03 03:26:31;;;;;;;10.65;3.25;;;;;;;-143.48;71.90;118439.88;5015940;28;20104;-75
2023/06/03 03:28:56;;;;;;;4.43;2.45;;;;;;;-143.48;72.10;118439.88;5015724;28;20105;-75
2023/06/03 03:31:22;;;;;;;8.60;2.60;;;;;;;-143.48;71.63;118439.88;5015430;28;20036;-75
2023/06/03 03:33:49;;;;;;;9.18;2.67;;;;;;;-143.48;71.23;118439.88;5016929;28;20040;-75
2023/06/03 03:36:36;;;;;;;13.55;2.88;;;;;;;-143.48;70.92;118439.88;5037529;28;20408;-75
2023/06/03 03:39:04;;;;;;;8.18;2.42;;;;;;;-143.48;70.57;118439.88;5019269;28;20083;-75
2023/06/03 03:41:30;;;;;;;5.32;2.40;;;;;;;-143.48;70.33;118439.88;5019330;28;20029;-75
2023/06/03 03:43:56;;;;;;;4.93;2.40;;;;;;;-143.48;70.45;118439.88;5037644;28;20032;-75
2023/06/03 03:46:21;;;;;;;5.80;2.58;;;;;;;-143.48;70.81;118439.88;5037237;28;20033;-75
2023/06/03 03:48:47;;;;;;;5.47;2.58;;;;;;;-143.48;69.52;118439.88;5019559;28;20101;-75
2023/06/03 03:51:13;;;;;;;5.30;2.50;;;;;;;-143.48;69.36;118439.88;5019686;28;20025;-75
2023/06/03 03:53:43;;;;;;;4.78;2.40;;;;;;;-143.48;69.05;118439.88;5037413;28;20118;-75
2023/06/03 03:56:09;;;;;;;5.47;2.70;;;;;;;-143.48;69.11;118439.88;5036775;28;20025;-75
2023/06/03 03:58:40;;;;;;;4.65;2.45;;;;;;;-143.48;68.17;118439.88;5037292;28;20028;-75
2023/06/03 04:01:15;;;;;;;5.72;2.40;;;;;;;-143.48;68.44;118439.88;5018850;28;20100;-75
2023/06/03 04:03:46;;;;;;;4.18;2.47;;;;;;;-143.48;68.04;118439.88;5018962;28;20029;-75
2023/06/03 04:06:32;;;;;;;7.07;2.50;;;;;;;-143.48;67.66;118439.88;5037277;28;20492;-75
2023/06/03 04:08:58;;;;;;;6.20;2.40;;;;;;;-143.48;67.58;118439.88;5026079;28;20076;-74
2023/06/03 04:11:28;;;;;;;4.70;2.40;;;;;;;-143.48;67.77;118439.88;5018782;28;20036;-75
2023/06/03 04:13:54;;;;;;;7.53;2.35;;;;;;;-143.48;67.08;118439.88;5018724;28;20045;-75
2023/06/03 04:16:41;;;;;;;4.90;2.50;;;;;;;-143.48;66.92;118439.88;5018595;28;20499;-75
2023/06/03 04:19:11;;;;;;;9.85;2.53;;;;;;;-143.48;67.42;118439.88;5036753;28;20045;-75
2023/06/03 04:21:40;;;;;;;6.30;2.30;;;;;;;-143.48;67.92;118439.88;5036979;28;20033;-75
2023/06/03 04:24:05;;;;;;;7.38;2.20;;;;;;;-143.48;67.52;118439.88;5018994;28;20488;-75
2023/06/03 04:26:31;;;;;;;5.07;2.10;;;;;;;-143.48;67.21;118439.88;5018686;28;20034;-75
2023/06/03 04:28:56;;;;;;;6.28;2.47;;;;;;;-143.48;66.58;118439.88;5018516;28;20472;-75
2023/06/03 04:31:21;;;;;;;4.97;2.22;;;;;;;-143.48;66.81;118439.88;5018458;28;20022;-75
2023/06/03 04:33:47;;;;;;;6.63;2.40;;;;;;;-143.48;66.67;118439.88;5019067;28;20116;-75
2023/06/03 04:36:12;;;;;;;8.38;2.28;;;;;;;-143.48;66.52;118439.88;5036271;28;20043;-75
2023/06/03 04:38:38;;;;;;;4.90;2.22;;;;;;;-143.48;65.56;118439.88;5036625;28;20083;-75
2023/06/03 04:41:04;;;;;;;6.75;2.20;;;;;;;-143.48;65.37;118439.88;5036130;28;20022;-75
2023/06/03 04:43:29;;;;;;;6.18;2.10;;;;;;;-143.48;65.16;118439.88;5018791;28;20451;-74
2023/06/03 04:45:55;;;;;;;4.22;2.03;;;;;;;-143.48;64.89;118439.88;5016956;28;20066;-75
2023/06/03 04:48:22;;;;;;;4.22;2.33;;;;;;;-143.48;64.70;118439.88;5017826;28;20026;-75
2023/06/03 04:50:48;;;;;;;5.03;2.15;;;;;;;-143.48;64.54;118439.88;5018148;28;20029;-74
2023/06/03 04:53:13;;;;;;;4.90;1.92;;;;;;;-143.48;63.83;118439.88;5018389;28;20036;-75
2023/06/03 04:55:44;;;;;;;4.40;2.22;;;;;;;-143.48;64.42;118439.88;5036220;28;20044;-74
2023/06/03 04:58:09;;;;;;;8.25;2.30;;;;;;;-143.48;64.01;118439.88;5017838;28;20108;-75
2023/06/03 05:00:36;;;;;;;2.83;1.77;;;;;;;-143.48;63.27;118439.88;5017865;28;20179;-75
2023/06/03 05:03:08;;;;;;;5.22;1.88;;;;;;;-143.48;63.06;118439.88;5035740;28;20025;-75
2023/06/03 05:05:33;;;;;;;8.65;2.25;;;;;;;-143.48;62.53;118439.88;5035653;28;20022;-75
2023/06/03 05:07:59;;;;;;;4.85;1.98;;;;;;;-143.48;63.05;118439.88;5017899;28;20025;-75
2023/06/03 05:10:24;;;;;;;5.40;2.00;;;;;;;-143.48;62.63;118439.88;5017720;28;20515;-75
2023/06/03 05:12:50;;;;;;;5.53;2.03;;;;;;;-143.48;62.77;118439.88;5018181;28;20063;-75
2023/06/03 05:15:15;;;;;;;5.55;2.15;;;;;;;-143.48;62.30;118439.88;5017879;28;20441;-75
2023/06/03 05:17:40;;;;;;;5.68;1.90;;;;;;;-143.48;61.85;118439.88;5018121;28;20095;-75
2023/06/03 05:20:10;;;;;;;4.45;1.92;;;;;;;-143.48;61.11;118439.88;5017601;28;20033;-74
2023/06/03 05:22:35;;;;;;;3.30;1.80;;;;;;;-143.48;61.18;118439.88;5017592;28;20029;-75
2023/06/03 05:25:03;;;;;;;4.63;1.90;;;;;;;-143.48;60.99;118439.88;5017863;28;20035;-75
2023/06/03 05:27:28;;;;;;;7.00;2.20;;;;;;;-143.48;60.22;118439.88;5017354;28;20025;-75
2023/06/03 05:29:54;;;;;;;4.72;2.00;;;;;;;-143.48;59.79;118439.88;5035244;28;20362;-75
2023/06/03 05:32:20;;;;;;;4.45;1.90;;;;;;;-143.48;59.36;118439.88;5017615;28;20039;-75
2023/06/03 05:34:45;;;;;;;5.38;2.05;;;;;;;-143.48;59.74;118439.88;5035092;28;20397;-75
2023/06/03 05:37:10;;;;;;;5.53;2.15;;;;;;;-143.48;58.11;118439.88;5017102;28;20060;-75
2023/06/03 05:39:36;;;;;;;3.50;1.90;;;;;;;-143.48;58.26;118439.88;5017189;28;20033;-75
2023/06/03 05:42:01;;;;;;;6.10;2.13;;;;;;;-143.48;57.51;118439.88;5034988;28;20075;-75
2023/06/03 05:44:26;;;;;;;4.75;2.17;;;;;;;-143.48;47.58;118439.88;5038483;28;20032;-75
2023/06/03 05:46:52;;;;;;;2.78;1.58;;;;;;;-143.48;43.98;118439.88;5017383;28;20097;-75
2023/06/03 05:49:17;;;;;;;6.72;2.03;;;;;;;-143.48;40.59;118439.88;5017227;28;20408;-75
2023/06/03 05:51:42;;;;;;;6.07;1.73;;;;;;;-143.48;40.27;118439.88;5034752;28;20516;-75
2023/06/03 05:54:08;;;;;;;4.82;1.90;;;;;;;-143.48;38.42;118439.88;5017453;28;20031;-75
2023/06/03 05:56:33;;;;;;;8.32;2.03;;;;;;;-143.48;36.51;118439.88;5016615;28;20036;-76
2023/06/03 05:58:59;;;;;;;9.57;1.83;;;;;;;-143.48;36.51;118439.88;5034740;28;20369;-75
2023/06/03 06:01:24;;;;;;;4.28;1.90;;;;;;;-143.48;35.97;118439.88;5034647;28;20049;-76
2023/06/03 06:03:50;;;;;;;2.78;1.77;;;;;;;-143.48;36.34;118439.88;5017100;28;20037;-76
2023/06/03 06:06:15;;;;;;;3.97;1.92;;;;;;;-143.48;34.71;118439.88;5017626;28;20029;-76
2023/06/03 06:08:42;;;;;;;6.50;2.00;;;;;;;-143.48;34.45;118439.88;5035296;28;20499;-75
2023/06/03 06:11:08;;;;;;;3.88;1.77;;;;;;;-143.48;35.90;118439.88;5017931;28;20064;-75
2023/06/03 06:13:33;;;;;;;7.15;1.77;;;;;;;-143.48;37.41;118439.88;5019831;28;20013;-75
2023/06/03 06:16:03;;;;;;;6.78;1.90;;;;;;;-143.48;34.90;118439.88;5040362;28;20025;-76
2023/06/03 06:18:31;;;;;;;7.93;1.85;;;;;;;-143.48;34.72;118439.88;5022555;28;20021;-76
2023/06/03 06:20:58;;;;;;;5.15;1.90;;;;;;;-143.48;34.58;118439.88;5039209;28;20056;-76
2023/06/03 06:23:23;;;;;;;5.53;1.83;;;;;;;-143.48;35.27;118439.88;5023046;28;20018;-76
2023/06/03 06:25:50;;;;;;;4.60;1.80;;;;;;;-143.48;34.85;118439.88;5017732;28;20411;-76
2023/06/03 06:28:18;;;;;;;3.20;1.80;;;;;;;-143.48;36.37;118439.88;5017994;28;20083;-76
2023/06/03 06:30:44;;;;;;;6.20;1.80;;;;;;;-143.48;35.15;118439.88;5018294;28;20031;-76
2023/06/03 06:33:11;;;;;;;4.15;1.90;;;;;;;-143.48;34.88;118439.88;5035396;28;20021;-76
2023/06/03 06:35:37;;;;;;;6.57;1.80;;;;;;;-143.48;34.46;118439.88;5017622;28;20484;-76
2023/06/03 06:38:03;;;;;;;3.53;1.80;;;;;;;-143.48;35.61;118439.88;5017199;28;20112;-76
2023/06/03 06:40:32;;;;;;;7.15;1.95;;;;;;;-143.48;34.21;118439.88;5035139;28;20392;-76
2023/06/03 06:42:58;;;;;;;4.38;1.60;;;;;;;-143.48;35.01;118439.88;5016633;28;20124;-76
2023/06/03 06:45:28;;;;;;;5.72;2.30;;;;;;;-143.48;36.95;118439.88;5035286;28;20053;-76
2023/06/03 06:48:13;;;;;;;4.22;1.80;;;;;;;-143.48;37.00;118439.88;5017091;28;20389;-76
2023/06/03 06:50:50;;;;;;;10.55;2.20;;;;;;;-143.48;36.47;118439.88;5034371;28;20472;-76
2023/06/03 06:53:18;;;;;;;3.97;2.00;;;;;;;-143.48;38.13;118439.88;5017030;28;20538;-76
2023/06/03 06:55:53;;;;;;;3.10;1.77;;;;;;;-143.48;37.22;118439.88;5016177;28;20122;-76
2023/06/03 06:58:20;;;;;;;5.57;2.60;;;;;;;-143.48;37.83;118439.88;5033888;28;20028;-77
2023/06/03 07:00:47;;;;;;;11.40;2.13;;;;;;;-143.48;38.10;118439.88;5016312;28;20104;-77
2023/06/03 07:03:14;;;;;;;6.38;2.08;;;;;;;-143.48;37.18;118439.88;5015624;28;20021;-76
2023/06/03 07:05:39;;;;;;;8.18;1.90;;;;;;;-143.48;37.29;118439.88;5033439;28;20527;-76
2023/06/03 07:08:05;;;;;;;6.25;2.25;;;;;;;-143.48;37.28;118439.88;5032535;28;20022;-76
2023/06/03 07:10:31;;;;;;;6.80;2.28;;;;;;;-143.48;36.32;118439.88;5015787;28;20155;-76
2023/06/03 07:12:56;;;;;;;8.07;2.30;;;;;;;-143.48;38.02;118439.88;5033591;28;20473;-76
2023/06/03 07:15:23;;;;;;;6.57;2.10;;;;;;;-143.48;37.13;118439.88;5015116;28;20025;-77
2023/06/03 07:17:52;;;;;;;6.13;2.45;;;;;;;-143.48;37.06;118439.88;5014839;28;20022;-77
2023/06/03 07:20:33;;;;;;;8.35;2.10;;;;;;;-143.48;36.60;118439.88;5033389;28;20112;-77
2023/06/03 07:22:58;;;;;;;4.65;2.10;;;;;;;-143.48;38.00;118439.88;5015380;28;20071;-77
2023/06/03 07:25:42;;;;;;;8.10;2.50;;;;;;;-143.48;35.64;118439.88;5015678;28;20037;-77
2023/06/03 07:28:10;;;;;;;9.57;2.30;;;;;;;-143.48;35.92;118439.88;5015461;28;20026;-76
2023/06/03 07:30:36;;;;;;;4.72;2.17;;;;;;;-143.48;36.70;118439.88;5033014;28;20060;-76
2023/06/03 07:33:06;;;;;;;4.55;2.40;;;;;;;-143.48;35.79;118439.88;5015452;28;20057;-77
2023/06/03 07:35:33;;;;;;;4.35;2.17;;;;;;;-143.48;36.37;118439.88;5015452;28;20055;-77
2023/06/03 07:37:58;;;;;;;4.07;2.10;;;;;;;-143.48;35.35;118439.88;5033042;28;20480;-76
2023/06/03 07:40:41;;;;;;;4.75;2.30;;;;;;;-143.48;36.48;118439.88;5015167;28;20029;-76
2023/06/03 07:43:08;;;;;;;8.23;2.17;;;;;;;-143.48;35.48;118439.88;5015660;28;20057;-75
2023/06/03 07:45:37;;;;;;;4.57;2.47;;;;;;;-143.48;35.85;118439.88;5033046;28;20029;-76
2023/06/03 07:48:03;;;;;;;5.32;2.30;;;;;;;-143.48;34.71;118439.88;5015184;28;20022;-76
2023/06/03 07:50:30;;;;;;;4.05;2.28;;;;;;;-143.48;35.30;118439.88;5015234;28;20033;-76
2023/06/03 07:53:03;;;;;;;5.78;2.30;;;;;;;-143.48;34.94;118439.88;5014930;28;20441;-76
2023/06/03 07:55:47;;;;;;;3.50;2.03;;;;;;;-143.48;34.08;118439.88;5014968;28;20021;-76
2023/06/03 07:58:15;;;;;;;5.20;2.20;;;;;;;-143.48;34.51;118439.88;5032678;28;20075;-75
2023/06/03 08:00:43;;;;;;;5.75;2.40;;;;;;;-143.48;33.76;118439.88;5014923;28;20041;-75
2023/06/03 08:03:08;;;;;;;6.07;2.70;;;;;;;-143.48;33.62;118439.88;5014814;28;20029;-75
2023/06/03 08:05:36;;;;;;;5.80;2.20;;;;;;;-143.48;32.96;118439.88;5014962;28;20034;-76
2023/06/03 08:08:05;;;;;;;5.38;2.25;;;;;;;-143.48;33.55;118439.88;5014854;28;20028;-74
2023/06/03 08:10:33;;;;;;;10.35;2.50;;;;;;;-143.48;33.95;118439.88;5032524;28;20490;-75
2023/06/03 08:12:59;;;;;;;7.18;2.00;;;;;;;-143.48;33.97;118439.88;5014901;28;20487;-75
2023/06/03 08:15:27;;;;;;;8.52;2.28;;;;;;;-143.48;33.37;118439.88;5032413;28;20032;-75
2023/06/03 08:17:53;;;;;;;6.45;2.20;;;;;;;-143.48;33.09;118439.88;5014692;28;20022;-77
2023/06/03 08:20:28;;;;;;;8.13;2.10;;;;;;;-143.48;33.79;118439.88;5016553;28;20064;-76
2023/06/03 08:22:55;;;;;;;3.13;1.90;;;;;;;-143.48;33.40;118439.88;5018362;28;20076;-75
2023/06/03 08:25:21;;;;;;;7.30;1.90;;;;;;;-143.48;33.20;118439.88;5018349;28;20017;-76
2023/06/03 08:27:47;;;;;;;3.88;2.10;;;;;;;-143.48;33.04;118439.88;5018425;28;20424;-75
2023/06/03 08:30:13;;;;;;;7.20;2.00;;;;;;;-143.48;32.12;118439.88;5035787;28;20030;-75
2023/06/03 08:32:39;;;;;;;4.85;1.67;;;;;;;-143.48;32.17;118439.88;5018309;28;20026;-76
2023/06/03 08:35:09;;;;;;;3.45;1.80;;;;;;;-143.48;32.59;118439.88;5017812;28;20023;-76
2023/06/03 08:37:36;;;;;;;3.65;1.88;;;;;;;-143.48;32.55;118439.88;5035451;28;20025;-77
2023/06/03 08:40:07;;;;;;;7.53;1.67;;;;;;;-143.48;31.44;118439.88;5035962;28;20473;-74
2023/06/03 08:42:39;;;;;;;5.60;1.75;;;;;;;-143.48;32.38;118439.88;5017813;28;20393;-75
2023/06/03 08:45:15;;;;;;;7.85;1.70;;;;;;;-143.48;32.74;118439.88;5001489;28;20079;-75
2023/06/03 08:48:05;;;;;;;2.88;1.70;;;;;;;-143.48;33.10;118439.88;5035701;28;20017;-79
2023/06/03 08:50:32;;;;;;;3.58;1.77;;;;;;;-143.48;32.73;118439.88;5017629;28;20032;-74
2023/06/03 08:53:03;;;;;;;5.53;1.65;;;;;;;-143.48;33.04;118439.88;5017463;28;20041;-73
2023/06/03 08:55:30;;;;;;;3.72;1.63;;;;;;;-143.48;34.25;118439.88;5035333;28;20080;-74
2023/06/03 08:58:01;;;;;;;5.20;1.95;;;;;;;-143.48;32.80;118439.88;5035124;28;20018;-74
2023/06/03 09:00:27;;;;;;;4.57;1.50;;;;;;;-143.48;32.52;118439.88;5017083;28;20458;-74
2023/06/03 09:02:54;;;;;;;4.07;1.70;;;;;;;-143.48;30.78;118439.88;5017101;28;20030;-73
2023/06/03 09:05:20;;;;;;;5.30;1.42;;;;;;;-143.48;30.93;118439.88;5035010;28;20063;-74
2023/06/03 09:07:47;;;;;;;5.07;1.40;;;;;;;-143.48;30.98;118439.88;5017088;28;20108;-74
2023/06/03 09:10:16;;;;;;;5.90;1.52;;;;;;;-143.48;30.65;118439.88;5035142;28;20029;-74
2023/06/03 09:12:44;;;;;;;4.60;1.50;;;;;;;-143.48;31.03;118439.88;5016896;28;20026;-74
2023/06/03 09:15:14;;;;;;;5.60;1.30;;;;;;;-143.48;31.03;118439.88;5017417;28;20032;-74
2023/06/03 09:17:40;;;;;;;5.05;1.40;;;;;;;-143.48;31.72;118439.88;5016988;28;20021;-74
2023/06/03 09:20:06;;;;;;;2.22;1.30;;;;;;;-143.48;31.21;118439.88;5034824;28;20159;-74
2023/06/03 09:22:33;;;;;;;5.95;1.60;;;;;;;-143.48;30.35;118439.88;5033588;28;20029;-73
2023/06/03 09:24:58;;;;;;;5.60;1.60;;;;;;;-143.48;30.78;118439.88;5017057;28;20026;-75
2023/06/03 09:27:24;;;;;;;3.08;1.40;;;;;;;-143.48;30.09;118439.88;5014976;28;20032;-74
2023/06/03 09:29:50;;;;;;;2.33;1.25;;;;;;;-143.48;30.72;118439.88;5032969;28;20539;-74
2023/06/03 09:32:16;;;;;;;2.83;1.30;;;;;;;-143.48;30.39;118439.88;5014021;28;20389;-74
2023/06/03 09:34:43;;;;;;;8.05;1.42;;;;;;;-143.48;29.57;118439.88;5032809;28;20025;-73
2023/06/03 09:37:09;;;;;;;3.08;1.40;;;;;;;-143.48;29.66;118439.88;5032676;28;20507;-73
2023/06/03 09:39:35;;;;;;;9.55;1.50;;;;;;;-143.48;30.29;118439.88;5031682;28;20056;-76
2023/06/03 09:42:01;;;;;;;4.65;1.55;;;;;;;-143.48;30.10;118439.88;5032374;28;20029;-74
2023/06/03 09:44:49;;;;;;;8.55;1.58;;;;;;;-143.48;29.65;118439.88;5015106;28;20026;-74
2023/06/03 09:47:15;;;;;;;8.45;1.42;;;;;;;-143.48;30.28;118439.88;5033042;28;20477;-74
2023/06/03 09:50:01;;;;;;;4.18;1.30;;;;;;;-143.48;29.02;118439.88;5033065;28;20397;-74
2023/06/03 09:52:33;;;;;;;2.92;1.27;;;;;;;-143.48;28.94;118439.88;5015984;28;20029;-74
2023/06/03 09:55:01;;;;;;;;;;;;;;;-143.48;30.75;118439.88;5017157;28;20036;-74
2023/06/03 09:57:26;;;;;;;2.67;1.30;;;;;;;-143.48;29.77;118439.88;5017106;28;20296;-75
2023/06/03 10:00:04;;;;;;;5.85;1.45;;;;;;;-143.48;29.59;118439.88;5034075;28;20025;-74
2023/06/03 10:02:30;;;;;;;3.67;1.30;;;;;;;-143.48;28.92;118439.88;5016997;28;20106;-74
2023/06/03 10:04:57;;;;;;;4.78;1.15;;;;;;;-143.48;29.29;118439.88;5033422;28;20536;-74
2023/06/03 10:07:22;;;;;;;7.22;1.40;;;;;;;-143.48;28.95;118439.88;5000324;28;20029;-75
2023/06/03 10:09:49;;;;;;;3.05;1.30;;;;;;;-143.48;28.76;118439.88;5016538;28;20079;-75
2023/06/03 10:12:27;;;;;;;3.42;1.13;;;;;;;-143.48;28.65;118439.88;5034210;28;20074;-74
2023/06/03 10:14:55;;;;;;;5.53;1.50;;;;;;;-143.48;28.51;118439.88;5034314;28;20063;-74
2023/06/03 10:17:20;;;;;;;6.22;1.30;;;;;;;-143.48;28.95;118439.88;5033928;28;20469;-74
2023/06/03 10:19:46;;;;;;;3.05;1.50;;;;;;;-143.48;28.98;118439.88;5016424;28;20090;-75
2023/06/03 10:22:15;;;;;;;2.28;1.13;;;;;;;-143.48;28.88;118439.88;5034743;28;20079;-75
2023/06/03 10:24:42;;;;;;;3.05;1.20;;;;;;;-143.48;30.35;118439.88;5016644;28;20021;-74
2023/06/03 10:27:08;;;;;;;4.15;1.40;;;;;;;-143.48;28.37;118439.88;5016008;28;20468;-74
2023/06/03 10:29:35;;;;;;;5.07;1.48;;;;;;;-143.48;28.90;118439.88;5033879;28;20108;-72
2023/06/03 10:32:02;;;;;;;3.13;1.30;;;;;;;-143.48;29.17;118439.88;5016022;28;20025;-73
2023/06/03 10:34:31;;;;;;;3.47;1.40;;;;;;;-143.48;28.60;118439.88;5015937;28;20021;-73
2023/06/03 10:36:57;;;;;;;6.03;1.55;;;;;;;-143.48;28.01;118439.88;5033790;28;20104;-74
2023/06/03 10:39:27;;;;;;;6.88;1.30;;;;;;;-143.48;27.66;118439.88;5014716;28;20528;-73
2023/06/03 10:41:56;;;;;;;6.45;1.23;;;;;;;-143.48;28.30;118439.88;5033502;28;20057;-74
2023/06/03 10:44:22;;;;;;;1.65;1.00;;;;;;;-143.48;28.96;118439.88;5015114;28;20124;-73
2023/06/03 10:47:13;;;;;;;7.07;1.42;;;;;;;-143.48;27.95;118439.88;5015725;28;20116;-75
2023/06/03 10:49:43;;;;;;;4.63;1.17;;;;;;;-143.48;28.56;118439.88;5016122;28;20112;-76
2023/06/03 10:52:14;;;;;;;2.83;1.27;;;;;;;-143.48;28.17;118439.88;5015516;28;20048;-75
2023/06/03 10:54:58;;;;;;;3.13;1.38;;;;;;;-143.48;27.52;118439.88;5015577;28;20056;-75
2023/06/03 10:57:31;;;;;;;1.98;1.00;;;;;;;-143.48;28.54;118439.88;5015707;28;20496;-76
2023/06/03 10:59:57;;;;;;;4.47;1.33;;;;;;;-143.48;27.60;118439.88;5033477;28;20053;-75
2023/06/03 11:02:22;;;;;;;2.70;1.42;;;;;;;-143.48;27.95;118439.88;5015737;28;20060;-74
2023/06/03 11:04:47;;;;;;;4.25;1.25;;;;;;;-143.48;27.12;118439.88;5033345;28;20068;-74
2023/06/03 11:07:31;;;;;;;2.53;1.40;;;;;;;-143.48;27.09;118439.88;5016230;28;20060;-76
2023/06/03 11:09:57;;;;;;;9.38;1.38;;;;;;;-143.48;27.32;118439.88;5033389;28;20432;-72
2023/06/03 11:12:50;;;;;;;3.13;1.40;;;;;;;-143.48;28.18;118439.88;5015618;28;20033;-75